createdAt,value
2018-04-30T00:00:33.716Z,984.74
2018-04-30T00:01:33.174Z,984.73
2018-04-30T00:02:33.141Z,984.70
2018-04-30T00:03:33.124Z,984.70
2018-04-30T00:04:33.273Z,984.68
2018-04-30T00:05:33.149Z,984.66
2018-04-30T00:06:34.388Z,984.64
2018-04-30T00:07:35.274Z,984.57
2018-04-30T00:08:33.085Z,984.56
2018-04-30T00:09:33.710Z,984.54
2018-04-30T00:10:33.056Z,984.57
2018-04-30T00:11:33.054Z,984.49
2018-04-30T00:12:33.689Z,984.52
2018-04-30T00:13:33.091Z,984.46
2018-04-30T00:14:33.759Z,984.40
2018-04-30T00:15:35.808Z,984.37
2018-04-30T00:16:34.702Z,984.34
2018-04-30T00:17:33.017Z,984.30
2018-04-30T00:18:33.019Z,984.25
2018-04-30T00:19:33.170Z,984.27
2018-04-30T00:20:32.992Z,984.21
2018-04-30T00:21:33.785Z,984.18
2018-04-30T00:22:32.973Z,984.21
2018-04-30T00:23:32.996Z,984.18
2018-04-30T00:24:33.695Z,984.21
2018-04-30T00:25:32.980Z,984.19
2018-04-30T00:26:32.991Z,984.15
2018-04-30T00:27:32.937Z,984.11
2018-04-30T00:28:32.935Z,984.14
2018-04-30T00:29:32.948Z,984.04
2018-04-30T00:30:32.905Z,984.12
2018-04-30T00:31:33.126Z,984.07
2018-04-30T00:32:33.694Z,984.03
2018-04-30T00:33:33.753Z,983.96
2018-04-30T00:34:33.273Z,983.89
2018-04-30T00:35:33.692Z,983.80
2018-04-30T00:36:32.871Z,983.78
2018-04-30T00:37:32.872Z,983.73
2018-04-30T00:38:32.854Z,983.72
2018-04-30T00:39:32.833Z,983.71
2018-04-30T00:40:32.847Z,983.67
2018-04-30T00:41:33.190Z,983.62
2018-04-30T00:42:33.703Z,983.61
2018-04-30T00:43:33.712Z,983.49
2018-04-30T00:44:32.805Z,983.50
2018-04-30T00:45:32.795Z,983.48
2018-04-30T00:46:32.789Z,983.43
2018-04-30T00:47:36.229Z,983.35
2018-04-30T00:48:32.772Z,983.35
2018-04-30T00:49:32.768Z,983.27
2018-04-30T00:50:32.743Z,983.27
2018-04-30T00:51:32.764Z,983.27
2018-04-30T00:52:33.727Z,983.25
2018-04-30T00:53:32.743Z,983.15
2018-04-30T00:54:32.741Z,983.13
2018-04-30T00:55:32.714Z,983.12
2018-04-30T00:56:32.730Z,983.08
2018-04-30T00:57:32.714Z,983.13
2018-04-30T00:58:32.704Z,983.16
2018-04-30T00:59:33.324Z,983.09
2018-04-30T01:00:33.209Z,983.07
2018-04-30T01:01:32.674Z,982.99
2018-04-30T01:02:32.679Z,982.95
2018-04-30T01:03:33.327Z,982.92
2018-04-30T01:04:32.711Z,982.84
2018-04-30T01:05:32.645Z,982.79
2018-04-30T01:06:33.212Z,982.69
2018-04-30T01:07:32.624Z,982.70
2018-04-30T01:08:39.259Z,982.58
2018-04-30T01:09:32.672Z,982.69
2018-04-30T01:10:32.610Z,982.62
2018-04-30T01:11:33.224Z,982.61
2018-04-30T01:12:32.592Z,982.56
2018-04-30T01:13:32.580Z,982.45
2018-04-30T01:14:32.615Z,982.51
2018-04-30T01:15:32.720Z,982.43
2018-04-30T01:17:13.641Z,982.42
2018-04-30T01:17:33.274Z,982.38
2018-04-30T01:18:32.576Z,982.34
2018-04-30T01:19:33.904Z,982.32
2018-04-30T01:20:32.620Z,982.31
2018-04-30T01:21:32.541Z,982.24
2018-04-30T01:22:32.510Z,982.19
2018-04-30T01:23:32.509Z,982.16
2018-04-30T01:24:33.293Z,982.13
2018-04-30T01:25:32.553Z,982.09
2018-04-30T01:26:32.517Z,982.13
2018-04-30T01:27:32.482Z,982.14
2018-04-30T01:28:32.492Z,982.00
2018-04-30T01:29:32.447Z,982.08
2018-04-30T01:30:32.450Z,982.07
2018-04-30T01:31:35.207Z,981.96
2018-04-30T01:32:32.465Z,981.88
2018-04-30T01:33:32.468Z,981.83
2018-04-30T01:34:32.424Z,981.86
2018-04-30T01:35:32.400Z,981.95
2018-04-30T01:36:32.394Z,981.98
2018-04-30T01:37:32.531Z,981.98
2018-04-30T01:38:34.205Z,981.92
2018-04-30T01:39:32.373Z,981.95
2018-04-30T01:40:32.366Z,981.97
2018-04-30T01:41:32.363Z,981.96
2018-04-30T01:42:32.352Z,981.88
2018-04-30T01:43:32.378Z,981.92
2018-04-30T01:44:35.291Z,981.99
2018-04-30T01:45:32.333Z,982.05
2018-04-30T01:46:32.317Z,982.10
2018-04-30T01:47:32.300Z,982.09
2018-04-30T01:48:32.340Z,982.06
2018-04-30T01:49:32.284Z,982.07
2018-04-30T01:50:32.325Z,982.02
2018-04-30T01:51:32.275Z,982.05
2018-04-30T01:52:32.260Z,982.11
2018-04-30T01:53:32.261Z,982.25
2018-04-30T01:54:32.281Z,982.38
2018-04-30T01:55:32.245Z,982.58
2018-04-30T01:56:32.230Z,982.72
2018-04-30T01:57:32.215Z,982.90
2018-04-30T01:58:32.206Z,983.02
2018-04-30T01:59:32.761Z,983.10
2018-04-30T02:00:32.276Z,983.19
2018-04-30T02:01:32.207Z,983.22
2018-04-30T02:02:33.320Z,983.20
2018-04-30T02:03:32.177Z,983.07
2018-04-30T02:04:32.180Z,982.97
2018-04-30T02:05:32.165Z,982.82
2018-04-30T02:06:32.257Z,982.72
2018-04-30T02:07:32.152Z,982.79
2018-04-30T02:08:32.132Z,982.84
2018-04-30T02:09:32.131Z,982.86
2018-04-30T02:10:32.123Z,982.87
2018-04-30T02:11:32.116Z,982.89
2018-04-30T02:12:32.110Z,982.89
2018-04-30T02:13:32.093Z,982.87
2018-04-30T02:14:32.094Z,982.85
2018-04-30T02:15:32.070Z,982.84
2018-04-30T02:16:33.137Z,982.81
2018-04-30T02:17:32.064Z,982.78
2018-04-30T02:18:32.098Z,982.77
2018-04-30T02:19:32.050Z,982.77
2018-04-30T02:20:32.047Z,982.75
2018-04-30T02:21:32.037Z,982.74
2018-04-30T02:22:32.040Z,982.70
2018-04-30T02:23:32.435Z,982.69
2018-04-30T02:24:32.003Z,982.65
2018-04-30T02:25:31.998Z,982.62
2018-04-30T02:26:32.001Z,982.65
2018-04-30T02:27:31.978Z,982.66
2018-04-30T02:28:31.987Z,982.63
2018-04-30T02:29:32.306Z,982.66
2018-04-30T02:30:31.956Z,982.66
2018-04-30T02:31:31.953Z,982.69
2018-04-30T02:32:31.946Z,982.73
2018-04-30T02:33:31.963Z,982.72
2018-04-30T02:34:31.922Z,982.71
2018-04-30T02:35:32.305Z,982.70
2018-04-30T02:36:31.910Z,982.67
2018-04-30T02:37:31.906Z,982.65
2018-04-30T02:38:32.336Z,982.61
2018-04-30T02:39:31.917Z,982.63
2018-04-30T02:40:31.935Z,982.59
2018-04-30T02:41:31.864Z,982.58
2018-04-30T02:42:31.845Z,982.58
2018-04-30T02:43:31.848Z,982.59
2018-04-30T02:44:31.844Z,982.58
2018-04-30T02:45:31.825Z,982.55
2018-04-30T02:46:31.851Z,982.49
2018-04-30T02:47:31.808Z,982.51
2018-04-30T02:48:31.827Z,982.47
2018-04-30T02:49:31.801Z,982.41
2018-04-30T02:50:31.826Z,982.41
2018-04-30T02:51:31.787Z,982.46
2018-04-30T02:52:31.788Z,982.49
2018-04-30T02:53:31.771Z,982.45
2018-04-30T02:54:31.758Z,982.43
2018-04-30T02:55:31.806Z,982.40
2018-04-30T02:56:31.743Z,982.36
2018-04-30T02:57:31.730Z,982.33
2018-04-30T02:58:31.721Z,982.29
2018-04-30T02:59:31.714Z,982.26
2018-04-30T03:00:31.699Z,982.27
2018-04-30T03:01:31.701Z,982.26
2018-04-30T03:02:31.689Z,982.28
2018-04-30T03:03:31.745Z,982.24
2018-04-30T03:04:31.662Z,982.19
2018-04-30T03:05:31.680Z,982.18
2018-04-30T03:06:31.661Z,982.22
2018-04-30T03:07:31.651Z,982.23
2018-04-30T03:08:31.665Z,982.28
2018-04-30T03:09:31.627Z,982.25
2018-04-30T03:10:31.615Z,982.31
2018-04-30T03:11:31.620Z,982.31
2018-04-30T03:12:31.602Z,982.31
2018-04-30T03:13:31.581Z,982.22
2018-04-30T03:14:31.582Z,982.18
2018-04-30T03:15:31.584Z,982.17
2018-04-30T03:16:31.559Z,982.18
2018-04-30T03:17:31.543Z,982.24
2018-04-30T03:18:31.546Z,982.34
2018-04-30T03:19:31.529Z,982.41
2018-04-30T03:20:31.557Z,982.39
2018-04-30T03:21:31.517Z,982.40
2018-04-30T03:22:31.508Z,982.32
2018-04-30T03:23:31.491Z,982.31
2018-04-30T03:24:31.488Z,982.34
2018-04-30T03:25:31.517Z,982.32
2018-04-30T03:26:31.459Z,982.30
2018-04-30T03:27:31.599Z,982.30
2018-04-30T03:28:31.456Z,982.25
2018-04-30T03:29:31.439Z,982.25
2018-04-30T03:30:31.434Z,982.22
2018-04-30T03:31:31.438Z,982.18
2018-04-30T03:32:31.413Z,982.16
2018-04-30T03:33:31.452Z,982.12
2018-04-30T03:34:31.406Z,982.10
2018-04-30T03:35:31.381Z,982.06
2018-04-30T03:36:31.384Z,982.06
2018-04-30T03:37:31.387Z,982.06
2018-04-30T03:38:31.402Z,982.08
2018-04-30T03:39:31.348Z,982.11
2018-04-30T03:40:31.353Z,982.13
2018-04-30T03:41:31.337Z,982.13
2018-04-30T03:42:31.324Z,982.04
2018-04-30T03:43:31.307Z,982.03
2018-04-30T03:44:31.316Z,982.06
2018-04-30T03:45:31.308Z,982.06
2018-04-30T03:46:31.292Z,982.08
2018-04-30T03:47:31.279Z,982.09
2018-04-30T03:48:31.264Z,982.10
2018-04-30T03:49:31.354Z,982.14
2018-04-30T03:50:31.268Z,982.13
2018-04-30T03:51:31.229Z,982.18
2018-04-30T03:52:31.275Z,982.21
2018-04-30T03:53:31.849Z,982.17
2018-04-30T03:54:31.268Z,982.15
2018-04-30T03:55:31.230Z,982.15
2018-04-30T03:56:31.207Z,982.11
2018-04-30T03:57:31.187Z,982.04
2018-04-30T03:58:31.344Z,982.00
2018-04-30T03:59:31.166Z,982.06
2018-04-30T04:00:31.176Z,982.07
2018-04-30T04:01:31.154Z,982.10
2018-04-30T04:02:31.144Z,982.09
2018-04-30T04:03:31.126Z,982.11
2018-04-30T04:04:31.195Z,982.08
2018-04-30T04:05:31.101Z,982.01
2018-04-30T04:06:31.102Z,982.02
2018-04-30T04:07:31.094Z,981.95
2018-04-30T04:08:31.087Z,981.95
2018-04-30T04:09:31.060Z,981.92
2018-04-30T04:10:31.069Z,981.94
2018-04-30T04:11:31.051Z,981.93
2018-04-30T04:12:31.035Z,981.87
2018-04-30T04:13:31.036Z,981.86
2018-04-30T04:14:31.025Z,981.86
2018-04-30T04:15:31.082Z,981.84
2018-04-30T04:16:31.006Z,981.84
2018-04-30T04:17:30.998Z,981.86
2018-04-30T04:18:30.998Z,981.90
2018-04-30T04:19:30.993Z,981.94
2018-04-30T04:20:30.987Z,981.93
2018-04-30T04:21:30.994Z,981.90
2018-04-30T04:22:30.949Z,981.87
2018-04-30T04:23:30.941Z,981.86
2018-04-30T04:24:30.925Z,981.90
2018-04-30T04:25:30.981Z,981.86
2018-04-30T04:26:30.909Z,981.86
2018-04-30T04:27:30.906Z,981.87
2018-04-30T04:28:30.886Z,981.82
2018-04-30T04:29:30.885Z,981.78
2018-04-30T04:30:30.871Z,981.81
2018-04-30T04:31:30.901Z,981.81
2018-04-30T04:32:30.854Z,981.83
2018-04-30T04:33:30.838Z,981.87
2018-04-30T04:34:30.830Z,981.88
2018-04-30T04:35:30.900Z,981.87
2018-04-30T04:36:30.821Z,981.86
2018-04-30T04:37:30.808Z,981.84
2018-04-30T04:38:30.792Z,981.86
2018-04-30T04:39:30.779Z,981.90
2018-04-30T04:40:30.774Z,981.92
2018-04-30T04:41:30.787Z,981.94
2018-04-30T04:42:30.858Z,981.93
2018-04-30T04:43:30.738Z,981.95
2018-04-30T04:44:30.749Z,981.99
2018-04-30T04:45:30.731Z,981.97
2018-04-30T04:46:30.710Z,981.95
2018-04-30T04:47:30.751Z,981.97
2018-04-30T04:48:30.862Z,981.99
2018-04-30T04:49:30.694Z,982.03
2018-04-30T04:50:30.681Z,982.06
2018-04-30T04:51:30.666Z,982.05
2018-04-30T04:52:30.662Z,982.07
2018-04-30T04:53:30.650Z,982.06
2018-04-30T04:54:30.666Z,982.09
2018-04-30T04:55:30.640Z,982.10
2018-04-30T04:56:30.667Z,982.16
2018-04-30T04:57:30.627Z,982.18
2018-04-30T04:58:30.650Z,982.23
2018-04-30T04:59:30.599Z,982.25
2018-04-30T05:00:30.581Z,982.28
2018-04-30T05:01:30.571Z,982.30
2018-04-30T05:02:30.633Z,982.42
2018-04-30T05:03:30.550Z,982.43
2018-04-30T05:04:30.625Z,982.41
2018-04-30T05:05:30.537Z,982.42
2018-04-30T05:06:30.526Z,982.42
2018-04-30T05:07:30.518Z,982.48
2018-04-30T05:08:30.499Z,982.41
2018-04-30T05:09:30.508Z,982.54
2018-04-30T05:10:30.519Z,982.52
2018-04-30T05:11:30.466Z,982.63
2018-04-30T05:12:30.470Z,982.58
2018-04-30T05:13:30.452Z,982.63
2018-04-30T05:14:30.454Z,982.58
2018-04-30T05:15:30.466Z,982.58
2018-04-30T05:16:30.447Z,982.57
2018-04-30T05:17:30.426Z,982.59
2018-04-30T05:18:30.415Z,982.59
2018-04-30T05:19:30.408Z,982.62
2018-04-30T05:20:30.426Z,982.61
2018-04-30T05:21:30.390Z,982.65
2018-04-30T05:22:30.380Z,982.65
2018-04-30T05:23:30.373Z,982.68
2018-04-30T05:24:30.372Z,982.66
2018-04-30T05:25:30.807Z,982.68
2018-04-30T05:26:30.335Z,982.65
2018-04-30T05:27:30.329Z,982.64
2018-04-30T05:28:30.328Z,982.66
2018-04-30T05:29:30.315Z,982.64
2018-04-30T05:30:30.305Z,982.66
2018-04-30T05:31:30.301Z,982.71
2018-04-30T05:32:30.278Z,982.75
2018-04-30T05:33:30.274Z,982.75
2018-04-30T05:34:30.269Z,982.79
2018-04-30T05:35:30.240Z,982.81
2018-04-30T05:36:30.291Z,982.81
2018-04-30T05:37:30.236Z,982.87
2018-04-30T05:38:30.215Z,982.89
2018-04-30T05:39:30.218Z,982.88
2018-04-30T05:40:30.207Z,982.87
2018-04-30T05:41:30.192Z,982.91
2018-04-30T05:42:30.225Z,983.01
2018-04-30T05:43:30.182Z,983.08
2018-04-30T05:44:30.170Z,983.16
2018-04-30T05:45:30.149Z,983.14
2018-04-30T05:46:30.144Z,983.14
2018-04-30T05:47:30.132Z,983.16
2018-04-30T05:48:30.120Z,983.09
2018-04-30T05:49:30.136Z,983.13
2018-04-30T05:50:30.099Z,983.22
2018-04-30T05:51:30.102Z,983.22
2018-04-30T05:52:30.116Z,983.21
2018-04-30T05:53:30.220Z,983.22
2018-04-30T05:54:30.076Z,983.26
2018-04-30T05:55:30.070Z,983.33
2018-04-30T05:56:30.060Z,983.38
2018-04-30T05:57:30.052Z,983.38
2018-04-30T05:58:30.035Z,983.40
2018-04-30T05:59:30.058Z,983.38
2018-04-30T06:00:30.087Z,983.41
2018-04-30T06:01:30.015Z,983.41
2018-04-30T06:02:30.007Z,983.41
2018-04-30T06:03:29.981Z,983.41
2018-04-30T06:04:29.993Z,983.40
2018-04-30T06:05:29.999Z,983.37
2018-04-30T06:06:29.953Z,983.37
2018-04-30T06:07:29.960Z,983.37
2018-04-30T06:08:29.927Z,983.31
2018-04-30T06:09:29.919Z,983.32
2018-04-30T06:10:29.961Z,983.40
2018-04-30T06:11:29.917Z,983.38
2018-04-30T06:12:29.899Z,983.49
2018-04-30T06:13:29.902Z,983.46
2018-04-30T06:14:29.925Z,983.46
2018-04-30T06:15:29.862Z,983.45
2018-04-30T06:16:29.865Z,983.52
2018-04-30T06:17:29.869Z,983.50
2018-04-30T06:18:29.825Z,983.51
2018-04-30T06:19:29.821Z,983.55
2018-04-30T06:20:29.828Z,983.59
2018-04-30T06:21:29.811Z,983.61
2018-04-30T06:22:29.825Z,983.66
2018-04-30T06:23:29.782Z,983.62
2018-04-30T06:24:29.897Z,983.61
2018-04-30T06:25:29.771Z,983.61
2018-04-30T06:26:29.762Z,983.58
2018-04-30T06:27:29.736Z,983.60
2018-04-30T06:28:29.741Z,983.66
2018-04-30T06:29:29.770Z,983.66
2018-04-30T06:30:29.728Z,983.66
2018-04-30T06:31:29.722Z,983.70
2018-04-30T06:32:29.701Z,983.77
2018-04-30T06:33:29.682Z,983.77
2018-04-30T06:34:29.738Z,983.81
2018-04-30T06:35:29.664Z,983.74
2018-04-30T06:36:29.656Z,983.72
2018-04-30T06:37:29.653Z,983.79
2018-04-30T06:38:29.649Z,983.76
2018-04-30T06:39:29.665Z,983.72
2018-04-30T06:40:29.619Z,983.80
2018-04-30T06:41:29.703Z,983.74
2018-04-30T06:42:29.602Z,983.74
2018-04-30T06:43:29.599Z,983.69
2018-04-30T06:44:29.566Z,983.80
2018-04-30T06:45:29.575Z,983.77
2018-04-30T06:46:29.545Z,983.80
2018-04-30T06:47:29.893Z,983.77
2018-04-30T06:48:29.535Z,983.74
2018-04-30T06:49:29.549Z,983.72
2018-04-30T06:50:29.535Z,983.79
2018-04-30T06:51:29.509Z,983.74
2018-04-30T06:52:29.487Z,983.81
2018-04-30T06:53:29.613Z,983.86
2018-04-30T06:54:29.484Z,983.87
2018-04-30T06:55:29.469Z,983.89
2018-04-30T06:56:29.455Z,983.89
2018-04-30T06:57:29.470Z,983.87
2018-04-30T06:58:29.498Z,983.86
2018-04-30T06:59:29.423Z,983.90
2018-04-30T07:00:29.407Z,983.89
2018-04-30T07:01:29.438Z,983.91
2018-04-30T07:02:29.384Z,983.91
2018-04-30T07:03:29.388Z,983.90
2018-04-30T07:04:29.432Z,983.92
2018-04-30T07:05:29.383Z,983.87
2018-04-30T07:06:29.359Z,983.90
2018-04-30T07:07:29.353Z,983.90
2018-04-30T07:08:29.324Z,983.92
2018-04-30T07:09:29.493Z,983.90
2018-04-30T07:10:29.330Z,983.93
2018-04-30T07:11:29.338Z,983.95
2018-04-30T07:12:29.301Z,983.94
2018-04-30T07:13:29.284Z,983.96
2018-04-30T07:14:29.283Z,984.03
2018-04-30T07:15:29.266Z,984.04
2018-04-30T07:16:29.302Z,984.03
2018-04-30T07:17:29.252Z,984.03
2018-04-30T07:18:29.243Z,984.03
2018-04-30T07:19:29.233Z,984.05
2018-04-30T07:20:29.253Z,984.06
2018-04-30T07:21:29.212Z,984.08
2018-04-30T07:22:29.189Z,984.07
2018-04-30T07:23:29.187Z,984.05
2018-04-30T07:24:29.177Z,984.10
2018-04-30T07:25:29.420Z,984.16
2018-04-30T07:26:29.167Z,984.15
2018-04-30T07:27:29.223Z,984.21
2018-04-30T07:28:29.170Z,984.21
2018-04-30T07:29:29.124Z,984.29
2018-04-30T07:30:29.136Z,984.22
2018-04-30T07:31:29.177Z,984.25
2018-04-30T07:32:29.103Z,984.22
2018-04-30T07:33:29.094Z,984.31
2018-04-30T07:34:29.089Z,984.25
2018-04-30T07:35:29.076Z,984.31
2018-04-30T07:36:29.060Z,984.35
2018-04-30T07:37:29.067Z,984.38
2018-04-30T07:38:29.082Z,984.35
2018-04-30T07:39:29.017Z,984.34
2018-04-30T07:40:29.009Z,984.30
2018-04-30T07:41:29.006Z,984.31
2018-04-30T07:42:29.028Z,984.33
2018-04-30T07:43:28.981Z,984.25
2018-04-30T07:44:28.979Z,984.32
2018-04-30T07:45:28.979Z,984.28
2018-04-30T07:46:29.033Z,984.29
2018-04-30T07:47:28.970Z,984.34
2018-04-30T07:48:28.930Z,984.34
2018-04-30T07:49:28.921Z,984.36
2018-04-30T07:50:28.916Z,984.35
2018-04-30T07:51:28.941Z,984.39
2018-04-30T07:52:28.933Z,984.39
2018-04-30T07:53:29.058Z,984.42
2018-04-30T07:54:28.925Z,984.39
2018-04-30T07:55:28.859Z,984.43
2018-04-30T07:56:28.855Z,984.50
2018-04-30T07:57:28.845Z,984.52
2018-04-30T07:58:28.840Z,984.55
2018-04-30T07:59:28.841Z,984.57
2018-04-30T08:00:28.812Z,984.55
2018-04-30T08:01:28.811Z,984.57
2018-04-30T08:02:28.795Z,984.57
2018-04-30T08:03:28.829Z,984.60
2018-04-30T08:04:28.839Z,984.63
2018-04-30T08:05:28.783Z,984.66
2018-04-30T08:06:28.752Z,984.74
2018-04-30T08:07:28.742Z,984.80
2018-04-30T08:08:28.733Z,984.86
2018-04-30T08:09:28.736Z,984.89
2018-04-30T08:10:28.963Z,984.88
2018-04-30T08:11:28.728Z,984.94
2018-04-30T08:12:28.694Z,985.03
2018-04-30T08:13:28.674Z,984.97
2018-04-30T08:14:28.674Z,984.98
2018-04-30T08:15:28.668Z,984.94
2018-04-30T08:16:28.991Z,984.97
2018-04-30T08:17:28.651Z,984.94
2018-04-30T08:18:28.646Z,984.97
2018-04-30T08:19:28.623Z,985.07
2018-04-30T08:20:28.627Z,985.13
2018-04-30T08:21:28.609Z,985.08
2018-04-30T08:22:28.641Z,985.21
2018-04-30T08:23:28.582Z,985.17
2018-04-30T08:24:28.574Z,985.11
2018-04-30T08:25:28.572Z,985.19
2018-04-30T08:26:28.550Z,985.20
2018-04-30T08:27:28.615Z,985.21
2018-04-30T08:28:28.527Z,985.20
2018-04-30T08:29:28.520Z,985.22
2018-04-30T08:30:28.550Z,985.21
2018-04-30T08:31:28.519Z,985.25
2018-04-30T08:32:28.501Z,985.28
2018-04-30T08:33:28.492Z,985.30
2018-04-30T08:34:28.475Z,985.29
2018-04-30T08:35:28.480Z,985.36
2018-04-30T08:36:28.464Z,985.34
2018-04-30T08:37:28.468Z,985.36
2018-04-30T08:38:28.461Z,985.42
2018-04-30T08:39:28.558Z,985.43
2018-04-30T08:40:28.412Z,985.42
2018-04-30T08:41:28.409Z,985.47
2018-04-30T08:42:28.390Z,985.45
2018-04-30T08:43:28.381Z,985.46
2018-04-30T08:44:28.386Z,985.46
2018-04-30T08:45:28.436Z,985.46
2018-04-30T08:46:28.423Z,985.58
2018-04-30T08:47:28.350Z,985.64
2018-04-30T08:48:28.377Z,985.62
2018-04-30T08:49:28.329Z,985.64
2018-04-30T08:50:28.444Z,985.68
2018-04-30T08:51:28.301Z,985.70
2018-04-30T08:52:28.305Z,985.69
2018-04-30T08:53:28.291Z,985.74
2018-04-30T08:54:28.275Z,985.77
2018-04-30T08:55:28.261Z,985.85
2018-04-30T08:56:28.264Z,985.82
2018-04-30T08:57:28.241Z,985.79
2018-04-30T08:58:28.231Z,985.79
2018-04-30T08:59:28.247Z,985.86
2018-04-30T09:00:28.327Z,985.82
2018-04-30T09:01:28.193Z,985.85
2018-04-30T09:02:28.194Z,985.81
2018-04-30T09:03:28.180Z,985.80
2018-04-30T09:04:28.171Z,985.78
2018-04-30T09:05:28.169Z,985.85
2018-04-30T09:06:28.149Z,985.92
2018-04-30T09:07:28.139Z,985.94
2018-04-30T09:08:28.127Z,986.01
2018-04-30T09:09:28.119Z,986.02
2018-04-30T09:10:28.138Z,985.96
2018-04-30T09:11:28.095Z,985.97
2018-04-30T09:12:28.089Z,985.95
2018-04-30T09:13:28.089Z,986.01
2018-04-30T09:14:28.068Z,986.02
2018-04-30T09:15:28.086Z,986.05
2018-04-30T09:16:28.104Z,986.01
2018-04-30T09:17:28.038Z,986.01
2018-04-30T09:18:28.031Z,985.98
2018-04-30T09:19:28.031Z,986.00
2018-04-30T09:20:28.011Z,986.08
2018-04-30T09:21:28.002Z,986.04
2018-04-30T09:22:28.015Z,986.05
2018-04-30T09:23:27.997Z,985.94
2018-04-30T09:24:27.973Z,985.99
2018-04-30T09:25:28.911Z,985.99
2018-04-30T09:26:28.086Z,985.95
2018-04-30T09:27:27.932Z,986.08
2018-04-30T09:28:28.931Z,985.95
2018-04-30T09:29:27.915Z,985.93
2018-04-30T09:30:27.907Z,986.05
2018-04-30T09:31:27.895Z,986.06
2018-04-30T09:32:27.915Z,986.09
2018-04-30T09:33:27.887Z,986.20
2018-04-30T09:34:27.868Z,986.16
2018-04-30T09:35:27.851Z,986.08
2018-04-30T09:36:29.448Z,986.16
2018-04-30T09:37:27.832Z,986.12
2018-04-30T09:38:28.455Z,986.15
2018-04-30T09:39:27.799Z,986.11
2018-04-30T09:40:27.786Z,986.16
2018-04-30T09:41:27.791Z,986.20
2018-04-30T09:42:27.769Z,986.17
2018-04-30T09:43:27.925Z,986.21
2018-04-30T09:44:27.761Z,986.24
2018-04-30T09:45:27.752Z,986.34
2018-04-30T09:46:27.753Z,986.18
2018-04-30T09:47:27.731Z,986.21
2018-04-30T09:48:27.722Z,986.20
2018-04-30T09:49:27.730Z,986.22
2018-04-30T09:50:27.702Z,986.24
2018-04-30T09:51:27.693Z,986.23
2018-04-30T09:52:27.673Z,986.16
2018-04-30T09:53:27.957Z,986.11
2018-04-30T09:54:27.679Z,986.16
2018-04-30T09:55:28.426Z,986.17
2018-04-30T09:56:27.727Z,986.13
2018-04-30T09:57:27.625Z,986.12
2018-04-30T09:58:27.705Z,986.08
2018-04-30T09:59:27.607Z,986.17
2018-04-30T10:00:27.604Z,986.33
2018-04-30T10:01:27.612Z,986.27
2018-04-30T10:02:27.582Z,986.34
2018-04-30T10:03:27.558Z,986.24
2018-04-30T10:04:27.697Z,986.29
2018-04-30T10:05:27.544Z,986.32
2018-04-30T10:06:27.543Z,986.35
2018-04-30T10:07:27.534Z,986.46
2018-04-30T10:08:27.506Z,986.41
2018-04-30T10:09:27.486Z,986.55
2018-04-30T10:10:27.492Z,986.52
2018-04-30T10:11:27.569Z,986.67
2018-04-30T10:12:27.485Z,986.60
2018-04-30T10:13:27.468Z,986.61
2018-04-30T10:14:27.833Z,986.60
2018-04-30T10:15:27.446Z,986.65
2018-04-30T10:16:27.420Z,986.67
2018-04-30T10:17:27.444Z,986.62
2018-04-30T10:18:27.407Z,986.66
2018-04-30T10:19:27.396Z,986.65
2018-04-30T10:20:27.750Z,986.65
2018-04-30T10:21:27.370Z,986.62
2018-04-30T10:22:27.387Z,986.63
2018-04-30T10:23:27.383Z,986.58
2018-04-30T10:24:27.352Z,986.59
2018-04-30T10:25:27.328Z,986.56
2018-04-30T10:26:29.366Z,986.58
2018-04-30T10:27:27.308Z,986.56
2018-04-30T10:28:27.319Z,986.53
2018-04-30T10:29:27.370Z,986.53
2018-04-30T10:30:27.464Z,986.52
2018-04-30T10:31:27.257Z,986.59
2018-04-30T10:32:27.270Z,986.57
2018-04-30T10:33:27.285Z,986.69
2018-04-30T10:34:27.225Z,986.62
2018-04-30T10:35:27.235Z,986.75
2018-04-30T10:36:27.482Z,986.67
2018-04-30T10:37:27.206Z,986.68
2018-04-30T10:38:27.186Z,986.66
2018-04-30T10:39:27.186Z,986.68
2018-04-30T10:40:27.163Z,986.68
2018-04-30T10:41:27.146Z,986.63
2018-04-30T10:42:27.453Z,986.81
2018-04-30T10:43:27.129Z,986.65
2018-04-30T10:44:27.245Z,986.63
2018-04-30T10:45:27.117Z,986.67
2018-04-30T10:46:27.128Z,986.65
2018-04-30T10:47:27.134Z,986.64
2018-04-30T10:48:27.089Z,986.64
2018-04-30T10:49:27.062Z,986.59
2018-04-30T10:50:27.061Z,986.61
2018-04-30T10:51:27.052Z,986.58
2018-04-30T10:52:27.104Z,986.54
2018-04-30T10:53:27.029Z,986.52
2018-04-30T10:54:27.020Z,986.58
2018-04-30T10:55:26.998Z,986.60
2018-04-30T10:56:27.249Z,986.66
2018-04-30T10:57:26.993Z,986.67
2018-04-30T10:58:27.020Z,986.64
2018-04-30T10:59:27.009Z,986.73
2018-04-30T11:00:26.960Z,986.75
2018-04-30T11:01:26.949Z,986.79
2018-04-30T11:02:26.936Z,986.70
2018-04-30T11:03:26.947Z,986.82
2018-04-30T11:04:26.959Z,986.82
2018-04-30T11:05:26.916Z,986.78
2018-04-30T11:06:26.895Z,986.78
2018-04-30T11:07:26.886Z,986.80
2018-04-30T11:08:26.878Z,986.71
2018-04-30T11:09:26.950Z,986.70
2018-04-30T11:10:26.854Z,986.70
2018-04-30T11:11:26.847Z,986.77
2018-04-30T11:12:26.907Z,986.72
2018-04-30T11:13:26.825Z,986.83
2018-04-30T11:14:26.811Z,986.78
2018-04-30T11:15:26.857Z,986.86
2018-04-30T11:16:26.786Z,986.85
2018-04-30T11:17:26.792Z,986.93
2018-04-30T11:18:26.777Z,986.94
2018-04-30T11:19:26.804Z,986.92
2018-04-30T11:20:26.789Z,987.00
2018-04-30T11:21:26.789Z,987.01
2018-04-30T11:22:26.764Z,987.02
2018-04-30T11:23:26.731Z,987.01
2018-04-30T11:24:26.719Z,987.05
2018-04-30T11:25:26.755Z,986.87
2018-04-30T11:26:26.687Z,986.88
2018-04-30T11:27:26.738Z,986.91
2018-04-30T11:28:26.673Z,986.88
2018-04-30T11:29:26.661Z,986.91
2018-04-30T11:30:26.656Z,986.94
2018-04-30T11:31:26.646Z,986.97
2018-04-30T11:32:26.632Z,987.00
2018-04-30T11:33:26.676Z,987.05
2018-04-30T11:34:26.620Z,986.98
2018-04-30T11:35:26.624Z,987.16
2018-04-30T11:36:26.604Z,987.15
2018-04-30T11:37:26.580Z,987.09
2018-04-30T11:38:26.579Z,987.15
2018-04-30T11:39:26.572Z,987.18
2018-04-30T11:40:26.552Z,987.09
2018-04-30T11:41:26.565Z,987.20
2018-04-30T11:42:26.540Z,987.17
2018-04-30T11:43:26.523Z,987.27
2018-04-30T11:44:26.515Z,987.11
2018-04-30T11:45:26.510Z,987.21
2018-04-30T11:46:26.501Z,987.23
2018-04-30T11:47:26.491Z,987.07
2018-04-30T11:48:26.522Z,987.43
2018-04-30T11:49:26.467Z,987.56
2018-04-30T11:50:26.462Z,987.22
2018-04-30T11:51:26.461Z,987.47
2018-04-30T11:52:26.524Z,987.33
2018-04-30T11:53:26.486Z,987.14
2018-04-30T11:54:26.432Z,987.32
2018-04-30T11:55:26.503Z,987.28
2018-04-30T11:56:26.415Z,987.98
2018-04-30T11:57:26.440Z,987.20
2018-04-30T11:58:26.423Z,987.25
2018-04-30T11:59:26.404Z,987.39
2018-04-30T12:00:26.399Z,987.36
2018-04-30T12:01:26.389Z,988.45
2018-04-30T12:02:26.442Z,987.22
2018-04-30T12:03:26.358Z,987.26
2018-04-30T12:04:26.410Z,987.17
2018-04-30T12:05:26.366Z,987.01
2018-04-30T12:06:26.375Z,987.07
2018-04-30T12:07:26.344Z,987.07
2018-04-30T12:08:26.367Z,987.13
2018-04-30T12:09:26.327Z,987.87
2018-04-30T12:10:26.324Z,987.20
2018-04-30T12:11:26.350Z,987.83
2018-04-30T12:12:26.311Z,987.45
2018-04-30T12:13:26.310Z,987.42
2018-04-30T12:14:26.287Z,987.60
2018-04-30T12:15:26.287Z,987.51
2018-04-30T12:16:26.567Z,987.25
2018-04-30T12:17:26.291Z,987.44
2018-04-30T12:18:26.273Z,987.21
2018-04-30T12:19:26.281Z,988.05
2018-04-30T12:20:26.286Z,987.92
2018-04-30T12:21:26.280Z,987.22
2018-04-30T12:22:26.273Z,987.31
2018-04-30T12:23:26.271Z,986.96
2018-04-30T12:24:26.258Z,986.96
2018-04-30T12:25:26.247Z,987.01
2018-04-30T12:26:26.267Z,987.00
2018-04-30T12:27:26.233Z,986.98
2018-04-30T12:28:26.241Z,987.10